IS00 weather

Jay Schertz Farm Airport
Lowpoint, Illinois, United States

Public forecast

Using degrees Fahrenheit for public forecast. Weather courtesy of forecast.io.

METAR (pilot weather report)

Closest report is Marshall County Airport, 11.8 nm (21.9 km) NNW. Retrieved 2019/09/21 18:35 UTC (0 seconds ago):

KC75 211835Z AUTO 20013G19KT 10SM OVC021 26/21 A3004 RMK AO2 LTG DSNT N T02560209

TAF (pilot weather forecast)

Closest forecast is General Wayne A. Downing Peoria International Airport, 21.8 nm (40.4 km) WSW. Retrieved 2019/09/21 18:22 UTC (13 minutes ago):

TAF KPIA 211720Z 2118/2218 19015G22KT P6SM VCSH SCT040 BKN060 FM212000 20013G22KT 5SM -SHRA BR VCTS SCT010 OVC030CB TEMPO 2120/2122 2SM SHRA BKN025 FM220200 19012KT P6SM VCSH OVC040 FM221200 21013G20KT 5SM SHRA BR VCTS BKN018 OVC030CB